Time;durP1;ratioP1;P1;durP2;ratioP2;P2;SDS_P1;SDS_P2;PMS_P1;PMS_P2;Temp;Humidity;BMP_temperature;BMP_pressure;BME280_temperature;BME280_humidity;BME280_pressure;Samples;Min_cycle;Max_cycle;Signal;HPM_P1;HPM_P2
2023/04/10 00:01:43;;;;;;;11.63;8.52;;;8.90;99.90;;;;;;5053032;28;20128;-59
2023/04/10 00:04:09;;;;;;;11.73;8.98;;;8.90;99.90;;;;;;5048280;28;20032;-59
2023/04/10 00:06:34;;;;;;;12.05;8.90;;;9.10;99.90;;;;;;5038572;28;20044;-59
2023/04/10 00:09:00;;;;;;;13.35;9.15;;;9.10;99.90;;;;;;5044822;28;20032;-59
2023/04/10 00:11:26;;;;;;;13.90;9.18;;;9.10;99.90;;;;;;5048357;28;20141;-59
2023/04/10 00:13:52;;;;;;;10.77;8.25;;;9.00;99.90;;;;;;5051321;28;20487;-59
2023/04/10 00:16:18;;;;;;;12.02;9.20;;;9.00;99.90;;;;;;5053018;28;20033;-59
2023/04/10 00:18:44;;;;;;;13.15;8.93;;;9.00;99.90;;;;;;5058115;28;20029;-58
2023/04/10 00:21:09;;;;;;;11.77;9.18;;;8.90;99.90;;;;;;5050926;28;20032;-59
2023/04/10 00:23:36;;;;;;;13.75;9.25;;;9.00;99.90;;;;;;5043384;28;20124;-59
2023/04/10 00:26:02;;;;;;;12.50;9.18;;;9.00;99.90;;;;;;5047783;28;20391;-59
2023/04/10 00:28:27;;;;;;;12.25;9.00;;;9.00;99.90;;;;;;5044227;28;20040;-59
2023/04/10 00:30:53;;;;;;;11.75;8.40;;;8.90;99.90;;;;;;5044163;28;20041;-59
2023/04/10 00:33:18;;;;;;;12.55;8.85;;;8.90;99.90;;;;;;5047088;28;20579;-59
2023/04/10 00:35:44;;;;;;;12.60;8.80;;;8.90;99.90;;;;;;5052499;28;20829;-59
2023/04/10 00:38:10;;;;;;;12.10;9.18;;;8.90;99.90;;;;;;5045419;28;20037;-59
2023/04/10 00:40:36;;;;;;;12.20;8.93;;;8.90;99.90;;;;;;5044661;28;20135;-59
2023/04/10 00:43:01;;;;;;;11.57;9.30;;;8.80;99.90;;;;;;5045800;28;20415;-59
2023/04/10 00:45:27;;;;;;;11.60;9.07;;;8.90;99.90;;;;;;5042302;28;20296;-59
2023/04/10 00:47:54;;;;;;;12.75;9.32;;;8.80;99.90;;;;;;5057044;28;20055;-59
2023/04/10 00:50:21;;;;;;;10.75;8.85;;;8.90;99.90;;;;;;5049160;28;20581;-59
2023/04/10 00:52:47;;;;;;;11.93;8.90;;;8.90;99.90;;;;;;5047457;28;20105;-59
2023/04/10 00:55:14;;;;;;;12.63;9.32;;;8.80;99.90;;;;;;5038540;28;20440;-59
2023/04/10 00:57:45;;;;;;;12.25;8.80;;;8.90;99.90;;;;;;5039707;28;20127;-59
2023/04/10 01:00:14;;;;;;;12.20;9.23;;;8.90;99.90;;;;;;5047549;28;20352;-59
2023/04/10 01:02:40;;;;;;;11.60;8.73;;;8.90;99.90;;;;;;5045837;28;20036;-59
2023/04/10 01:05:08;;;;;;;11.55;9.25;;;8.90;99.90;;;;;;5045988;28;20399;-59
2023/04/10 01:08:13;;;;;;;11.98;9.20;;;8.90;99.90;;;;;;5036466;28;20033;-59
2023/04/10 01:10:47;;;;;;;12.20;8.98;;;8.90;99.90;;;;;;5019049;28;20497;-59
2023/04/10 01:13:26;;;;;;;11.35;8.95;;;9.00;99.90;;;;;;5037617;28;20364;-59
2023/04/10 01:16:06;;;;;;;14.27;9.80;;;9.00;99.90;;;;;;5044952;28;20545;-59
2023/04/10 01:18:42;;;;;;;12.02;9.23;;;9.10;99.90;;;;;;5037818;28;20121;-59
2023/04/10 01:21:11;;;;;;;13.70;9.35;;;9.00;99.90;;;;;;5043913;28;20147;-58
2023/04/10 01:23:52;;;;;;;12.77;9.30;;;9.00;99.90;;;;;;5036870;28;20079;-59
2023/04/10 01:26:42;;;;;;;11.80;9.65;;;9.00;99.90;;;;;;5043702;28;20090;-59
2023/04/10 01:29:11;;;;;;;14.30;9.45;;;9.00;99.90;;;;;;5038710;28;20598;-59
2023/04/10 01:31:43;;;;;;;12.65;10.00;;;9.00;99.90;;;;;;5046697;28;20036;-59
2023/04/10 01:34:15;;;;;;;12.57;9.13;;;9.10;99.90;;;;;;5037962;28;20509;-59
2023/04/10 01:36:54;;;;;;;11.98;9.15;;;9.10;99.90;;;;;;5042609;28;20237;-59
2023/04/10 01:39:21;;;;;;;13.95;9.60;;;9.00;99.90;;;;;;5039161;28;20124;-59
2023/04/10 01:41:51;;;;;;;12.90;8.73;;;9.00;99.90;;;;;;5045046;28;20082;-59
2023/04/10 01:44:22;;;;;;;13.40;9.50;;;9.00;99.90;;;;;;5045174;28;20536;-58
2023/04/10 01:46:48;;;;;;;11.93;9.18;;;9.00;99.90;;;;;;5039825;28;20125;-59
2023/04/10 01:49:15;;;;;;;12.65;9.38;;;8.80;99.90;;;;;;5040641;28;20065;-59
2023/04/10 01:51:42;;;;;;;13.00;9.95;;;8.80;99.90;;;;;;5041264;28;20135;-59
2023/04/10 01:54:08;;;;;;;13.50;9.25;;;8.80;99.90;;;;;;5046924;28;20033;-59
2023/04/10 01:56:34;;;;;;;12.68;9.65;;;8.70;99.90;;;;;;5043459;28;20040;-59
2023/04/10 01:59:02;;;;;;;15.13;9.65;;;8.70;99.90;;;;;;5041849;28;20036;-59
2023/04/10 02:01:28;;;;;;;12.75;10.23;;;8.80;99.90;;;;;;5042307;28;20029;-59
2023/04/10 02:03:54;;;;;;;13.27;10.00;;;8.80;99.90;;;;;;5044300;28;20098;-59
2023/04/10 02:06:35;;;;;;;13.05;9.75;;;8.80;99.90;;;;;;5037787;28;20436;-59
2023/04/10 02:09:26;;;;;;;14.20;9.85;;;8.70;99.90;;;;;;5049710;28;20099;-59
2023/04/10 02:12:05;;;;;;;13.00;9.65;;;8.70;99.90;;;;;;5036589;28;20033;-59
2023/04/10 02:14:32;;;;;;;15.95;9.35;;;8.70;99.90;;;;;;5045040;28;20032;-59
2023/04/10 02:17:01;;;;;;;13.48;10.07;;;8.80;99.90;;;;;;5038453;28;20034;-59
2023/04/10 02:19:28;;;;;;;14.05;9.35;;;8.70;99.90;;;;;;5039429;28;20512;-59
2023/04/10 02:21:55;;;;;;;14.00;10.45;;;8.60;99.90;;;;;;5044330;28;20032;-59
2023/04/10 02:24:22;;;;;;;12.60;9.88;;;8.60;99.90;;;;;;5041653;28;20040;-59
2023/04/10 02:26:50;;;;;;;13.25;10.20;;;8.70;99.90;;;;;;5044495;28;20075;-58
2023/04/10 02:29:16;;;;;;;13.98;9.95;;;8.60;99.90;;;;;;5064630;28;20038;-59
2023/04/10 02:31:42;;;;;;;13.30;10.23;;;8.50;99.90;;;;;;5050520;28;20045;-59
2023/04/10 02:34:08;;;;;;;13.68;10.15;;;8.60;99.90;;;;;;5041440;28;20107;-59
2023/04/10 02:36:37;;;;;;;14.65;9.88;;;8.40;99.90;;;;;;5042170;28;20033;-59
2023/04/10 02:39:03;;;;;;;12.27;9.63;;;8.40;99.90;;;;;;5035329;28;20052;-59
2023/04/10 02:41:28;;;;;;;13.77;10.48;;;8.50;99.90;;;;;;5036785;28;20025;-59
2023/04/10 02:43:54;;;;;;;12.70;9.70;;;8.50;99.90;;;;;;5046194;28;20021;-59
2023/04/10 02:46:19;;;;;;;13.50;10.27;;;8.40;99.90;;;;;;5042861;28;20183;-59
2023/04/10 02:48:45;;;;;;;13.57;10.02;;;8.40;99.90;;;;;;5042979;28;20083;-59
2023/04/10 02:51:10;;;;;;;13.13;10.50;;;8.30;99.90;;;;;;5042119;28;20037;-59
2023/04/10 02:53:36;;;;;;;12.65;10.00;;;8.30;99.90;;;;;;5049415;28;20025;-59
2023/04/10 02:56:02;;;;;;;16.65;10.65;;;8.30;99.90;;;;;;5036285;28;20140;-59
2023/04/10 02:58:29;;;;;;;13.13;10.10;;;8.30;99.90;;;;;;5057930;28;20132;-59
2023/04/10 03:00:55;;;;;;;13.52;10.43;;;8.20;99.90;;;;;;5051742;28;20047;-59
2023/04/10 03:03:21;;;;;;;13.00;9.98;;;8.30;99.90;;;;;;5049758;28;20131;-59
2023/04/10 03:05:48;;;;;;;12.75;9.85;;;8.20;99.90;;;;;;5045651;28;20148;-59
2023/04/10 03:08:14;;;;;;;12.50;9.60;;;8.10;99.90;;;;;;5038116;28;20119;-59
2023/04/10 03:10:42;;;;;;;12.07;9.77;;;8.20;99.90;;;;;;5039009;28;20064;-59
2023/04/10 03:13:07;;;;;;;13.32;9.70;;;8.20;99.90;;;;;;5049367;28;20090;-59
2023/04/10 03:15:33;;;;;;;15.40;9.90;;;8.30;99.90;;;;;;5046260;28;20459;-59
2023/04/10 03:17:58;;;;;;;13.70;9.90;;;8.20;99.90;;;;;;5044784;28;20443;-59
2023/04/10 03:20:24;;;;;;;14.50;10.20;;;8.40;99.90;;;;;;5045493;28;20401;-59
2023/04/10 03:22:49;;;;;;;13.68;10.15;;;8.40;99.90;;;;;;5047769;28;20357;-59
2023/04/10 03:25:15;;;;;;;12.63;10.05;;;8.40;99.90;;;;;;5049988;28;20055;-59
2023/04/10 03:27:40;;;;;;;14.80;10.10;;;8.40;99.90;;;;;;5052481;28;20059;-59
2023/04/10 03:30:08;;;;;;;13.98;10.48;;;8.20;99.90;;;;;;5038026;28;20048;-59
2023/04/10 03:32:34;;;;;;;13.63;10.55;;;8.20;99.90;;;;;;5044029;28;20040;-59
2023/04/10 03:35:00;;;;;;;13.77;10.20;;;8.20;99.90;;;;;;5044930;28;20393;-59
2023/04/10 03:37:28;;;;;;;14.40;10.40;;;8.20;99.90;;;;;;5047988;28;20034;-59
2023/04/10 03:39:54;;;;;;;12.75;10.13;;;8.20;99.90;;;;;;5035689;28;20337;-59
2023/04/10 03:42:19;;;;;;;14.70;10.13;;;8.20;99.90;;;;;;5046228;28;20309;-59
2023/04/10 03:44:45;;;;;;;14.82;10.02;;;8.30;99.90;;;;;;5048579;28;20112;-59
2023/04/10 03:47:10;;;;;;;17.83;11.40;;;8.40;99.90;;;;;;5051301;28;20060;-62
2023/04/10 03:49:36;;;;;;;14.82;9.98;;;8.30;99.90;;;;;;5043995;28;20436;-60
2023/04/10 03:52:02;;;;;;;16.00;11.13;;;8.30;99.90;;;;;;5039457;28;20028;-59
2023/04/10 03:54:27;;;;;;;14.57;10.40;;;8.30;99.90;;;;;;5044736;28;20392;-59
2023/04/10 03:56:53;;;;;;;16.73;10.35;;;8.20;99.90;;;;;;5046301;28;20441;-59
2023/04/10 03:59:18;;;;;;;15.48;11.13;;;8.20;99.90;;;;;;5054496;28;20114;-59
2023/04/10 04:01:44;;;;;;;14.43;9.77;;;8.00;99.90;;;;;;5043995;28;20435;-59
2023/04/10 04:04:10;;;;;;;13.27;9.35;;;8.00;99.90;;;;;;5052945;28;20119;-59
2023/04/10 04:06:35;;;;;;;14.13;10.38;;;8.00;99.90;;;;;;5042311;28;20025;-59
2023/04/10 04:09:01;;;;;;;15.93;9.90;;;8.00;99.90;;;;;;5060459;28;20040;-60
2023/04/10 04:11:26;;;;;;;13.68;9.60;;;7.90;99.90;;;;;;5052221;28;20037;-59
2023/04/10 04:13:52;;;;;;;14.07;9.35;;;7.80;99.90;;;;;;5043671;28;20115;-59
2023/04/10 04:16:18;;;;;;;12.38;9.32;;;7.80;99.90;;;;;;5047050;28;20290;-59
2023/04/10 04:18:43;;;;;;;13.32;9.57;;;7.80;99.90;;;;;;5044353;28;20369;-59
2023/04/10 04:21:09;;;;;;;13.35;9.73;;;7.80;99.90;;;;;;5056047;28;20501;-59
2023/04/10 04:23:34;;;;;;;13.52;9.60;;;7.90;99.90;;;;;;5043416;28;20029;-59
2023/04/10 04:26:00;;;;;;;13.48;9.70;;;8.00;99.90;;;;;;5044203;28;20041;-59
2023/04/10 04:28:26;;;;;;;13.80;9.55;;;7.90;99.90;;;;;;5050416;28;20044;-59
2023/04/10 04:30:51;;;;;;;13.27;9.32;;;7.80;99.90;;;;;;5049498;28;20045;-59
2023/04/10 04:33:17;;;;;;;12.02;9.43;;;7.80;99.90;;;;;;5040884;28;20744;-60
2023/04/10 04:35:42;;;;;;;12.48;9.15;;;7.80;99.90;;;;;;5048722;28;20453;-59
2023/04/10 04:38:08;;;;;;;12.98;9.00;;;7.80;99.90;;;;;;5046564;28;20102;-59
2023/04/10 04:40:33;;;;;;;13.30;9.55;;;7.80;99.90;;;;;;5048156;28;20397;-59
2023/04/10 04:42:59;;;;;;;13.20;9.05;;;7.80;99.90;;;;;;5045396;28;20462;-59
2023/04/10 04:45:25;;;;;;;12.40;9.38;;;7.90;99.90;;;;;;5048480;28;20411;-59
2023/04/10 04:47:50;;;;;;;16.48;9.45;;;7.80;99.90;;;;;;5045630;28;20071;-60
2023/04/10 04:50:16;;;;;;;12.82;9.48;;;7.80;99.90;;;;;;5054672;28;20087;-59
2023/04/10 04:52:42;;;;;;;13.30;9.20;;;7.70;99.90;;;;;;5043534;28;20087;-60
2023/04/10 04:55:08;;;;;;;14.02;10.23;;;7.60;99.90;;;;;;5048035;28;20064;-59
2023/04/10 04:57:34;;;;;;;13.10;9.43;;;7.70;99.90;;;;;;5043450;28;20044;-59
2023/04/10 05:00:00;;;;;;;14.55;9.70;;;7.80;99.90;;;;;;5051488;28;20131;-59
2023/04/10 05:02:25;;;;;;;13.45;8.73;;;7.80;99.90;;;;;;5048092;28;20552;-59
2023/04/10 05:04:51;;;;;;;13.52;9.38;;;7.90;99.90;;;;;;5046411;28;20120;-59
2023/04/10 05:07:16;;;;;;;13.40;8.95;;;7.80;99.90;;;;;;5035751;28;20156;-59
2023/04/10 05:09:42;;;;;;;13.00;9.05;;;7.90;99.90;;;;;;5042756;28;20168;-60
2023/04/10 05:12:07;;;;;;;11.48;8.88;;;7.90;99.90;;;;;;5040839;28;20107;-60
2023/04/10 05:14:33;;;;;;;11.98;8.98;;;7.90;99.90;;;;;;5049371;28;20575;-59
2023/04/10 05:16:59;;;;;;;12.18;8.75;;;8.00;99.90;;;;;;5043277;28;20043;-59
2023/04/10 05:19:24;;;;;;;12.05;9.07;;;8.00;99.90;;;;;;5045778;28;20029;-59
2023/04/10 05:21:50;;;;;;;12.07;8.60;;;7.90;99.90;;;;;;5042476;28;20101;-59
2023/04/10 05:24:16;;;;;;;12.68;9.07;;;8.00;99.90;;;;;;5047849;28;20037;-59
2023/04/10 05:26:41;;;;;;;11.95;9.02;;;8.10;99.90;;;;;;5048345;28;20503;-59
2023/04/10 05:29:07;;;;;;;12.68;9.07;;;8.00;99.90;;;;;;5058635;28;20040;-60
2023/04/10 05:31:32;;;;;;;12.63;9.18;;;8.10;99.90;;;;;;5051648;28;20041;-59
2023/04/10 05:33:58;;;;;;;11.85;8.93;;;8.20;99.90;;;;;;5039451;28;20041;-59
2023/04/10 05:36:24;;;;;;;12.20;8.57;;;8.20;99.90;;;;;;5042444;28;20043;-59
2023/04/10 05:38:50;;;;;;;13.25;8.95;;;8.30;99.90;;;;;;5048609;28;20161;-59
2023/04/10 05:41:15;;;;;;;12.00;8.88;;;8.30;99.90;;;;;;5051007;28;20036;-59
2023/04/10 05:43:41;;;;;;;11.80;8.75;;;8.30;99.90;;;;;;5047377;28;20126;-59
2023/04/10 05:46:06;;;;;;;12.55;9.48;;;8.30;99.90;;;;;;5050178;28;20400;-59
2023/04/10 05:48:32;;;;;;;13.80;9.02;;;8.50;99.90;;;;;;5052114;28;20040;-60
2023/04/10 05:50:57;;;;;;;13.30;8.60;;;8.50;99.90;;;;;;5054827;28;20041;-59
2023/04/10 05:53:30;;;;;;;11.45;8.80;;;8.50;99.90;;;;;;5050617;28;20062;-59
2023/04/10 05:55:56;;;;;;;12.65;9.60;;;8.60;99.90;;;;;;5051854;28;20043;-59
2023/04/10 05:58:22;;;;;;;12.88;9.23;;;8.80;99.90;;;;;;5057867;28;20113;-59
2023/04/10 06:00:47;;;;;;;13.25;9.25;;;8.80;99.90;;;;;;5050423;28;20029;-59
2023/04/10 06:03:13;;;;;;;10.32;8.30;;;8.80;99.90;;;;;;5048853;28;20090;-59
2023/04/10 06:05:40;;;;;;;12.55;9.05;;;8.80;99.90;;;;;;5047159;28;20040;-60
2023/04/10 06:08:06;;;;;;;12.23;8.70;;;8.90;99.90;;;;;;5045115;28;20439;-59
2023/04/10 06:10:31;;;;;;;12.77;8.85;;;9.00;99.90;;;;;;5054443;28;20100;-59
2023/04/10 06:12:57;;;;;;;11.55;9.15;;;9.10;99.90;;;;;;5046367;28;20044;-59
2023/04/10 06:15:23;;;;;;;11.93;9.05;;;9.10;99.90;;;;;;5046231;28;20071;-59
2023/04/10 06:17:48;;;;;;;11.43;8.73;;;9.20;99.90;;;;;;5050995;28;20132;-59
2023/04/10 06:20:14;;;;;;;15.52;10.50;;;9.20;99.90;;;;;;5047049;28;20040;-59
2023/04/10 06:22:39;;;;;;;20.83;13.63;;;9.30;99.90;;;;;;5051147;28;20045;-59
2023/04/10 06:25:05;;;;;;;11.77;9.38;;;9.40;99.90;;;;;;5048379;28;20076;-59
2023/04/10 06:27:32;;;;;;;13.73;10.15;;;9.60;99.90;;;;;;5049943;28;20036;-59
2023/04/10 06:29:58;;;;;;;12.55;9.48;;;9.70;99.90;;;;;;5048561;28;20518;-59
2023/04/10 06:32:23;;;;;;;12.90;8.93;;;9.80;99.90;;;;;;5043663;28;20033;-59
2023/04/10 06:34:49;;;;;;;11.48;8.55;;;9.90;99.90;;;;;;5052511;28;20033;-59
2023/04/10 06:37:14;;;;;;;11.90;9.32;;;10.10;99.90;;;;;;5052233;28;20036;-59
2023/04/10 06:39:40;;;;;;;11.20;8.52;;;10.10;99.90;;;;;;5050170;28;20405;-59
2023/04/10 06:42:05;;;;;;;12.40;9.70;;;10.20;99.90;;;;;;5042442;28;20417;-59
2023/04/10 06:44:31;;;;;;;12.23;8.82;;;10.30;99.90;;;;;;5051548;28;20056;-59
2023/04/10 06:46:56;;;;;;;12.50;9.57;;;10.40;99.90;;;;;;5048361;28;20041;-59
2023/04/10 06:49:23;;;;;;;12.00;8.90;;;10.40;99.90;;;;;;5050152;28;20028;-59
2023/04/10 06:51:48;;;;;;;11.50;8.80;;;10.40;99.90;;;;;;5052770;28;20031;-59
2023/04/10 06:54:14;;;;;;;10.90;9.10;;;10.60;99.90;;;;;;5044925;28;20037;-59
2023/04/10 06:56:40;;;;;;;9.70;8.48;;;10.60;99.90;;;;;;5047085;28;20642;-59
2023/04/10 06:59:05;;;;;;;11.40;8.70;;;10.70;99.90;;;;;;5056953;28;20052;-59
2023/04/10 07:01:31;;;;;;;11.48;9.27;;;10.60;99.90;;;;;;5046259;28;20033;-59
2023/04/10 07:03:56;;;;;;;10.68;7.97;;;10.70;99.90;;;;;;5042025;28;20179;-59
2023/04/10 07:06:22;;;;;;;11.38;8.82;;;10.90;99.90;;;;;;5046085;28;20104;-59
2023/04/10 07:08:48;;;;;;;11.15;8.38;;;10.90;99.90;;;;;;5040732;28;20041;-59
2023/04/10 07:11:14;;;;;;;11.38;9.27;;;11.10;99.90;;;;;;5041666;28;20064;-59
2023/04/10 07:13:39;;;;;;;12.60;9.00;;;11.10;99.90;;;;;;5044900;28;20090;-59
2023/04/10 07:16:07;;;;;;;11.90;8.75;;;11.10;99.90;;;;;;5048384;28;20059;-59
2023/04/10 07:18:34;;;;;;;10.65;8.20;;;11.00;99.90;;;;;;5043737;28;20032;-59
2023/04/10 07:21:00;;;;;;;11.25;8.43;;;11.10;99.90;;;;;;5051533;28;20036;-59
2023/04/10 07:23:26;;;;;;;10.60;8.60;;;11.00;99.90;;;;;;5039614;28;20033;-59
2023/04/10 07:25:52;;;;;;;11.85;8.77;;;11.00;99.90;;;;;;5046886;28;20114;-58
2023/04/10 07:28:17;;;;;;;10.65;8.32;;;11.00;99.90;;;;;;5042694;28;20109;-58
2023/04/10 07:30:43;;;;;;;11.85;8.20;;;11.10;99.90;;;;;;5046812;28;20140;-59
2023/04/10 07:33:08;;;;;;;11.98;8.50;;;11.10;99.90;;;;;;5048652;28;20040;-58
2023/04/10 07:35:35;;;;;;;11.68;8.82;;;11.20;99.90;;;;;;5049782;28;20041;-58
2023/04/10 07:38:01;;;;;;;10.60;8.45;;;11.30;99.90;;;;;;5048470;28;20069;-58
2023/04/10 07:40:26;;;;;;;11.40;8.00;;;11.40;99.90;;;;;;5045013;28;20033;-59
2023/04/10 07:42:52;;;;;;;10.35;8.00;;;11.40;99.90;;;;;;5044744;28;20401;-59
2023/04/10 07:45:17;;;;;;;10.10;8.10;;;11.50;99.90;;;;;;5039841;28;20409;-59
2023/04/10 07:47:43;;;;;;;9.85;8.13;;;11.60;99.90;;;;;;5040933;28;20446;-59
2023/04/10 07:50:09;;;;;;;10.98;8.45;;;11.70;99.90;;;;;;5043711;28;20040;-59
2023/04/10 07:52:34;;;;;;;9.25;7.97;;;11.90;99.90;;;;;;5043280;28;20041;-59
2023/04/10 07:55:04;;;;;;;10.80;8.82;;;12.00;99.90;;;;;;5036480;28;20043;-59
2023/04/10 07:57:31;;;;;;;10.90;7.82;;;12.10;99.90;;;;;;5049017;28;20029;-58
2023/04/10 07:59:56;;;;;;;11.63;8.00;;;12.00;99.90;;;;;;5046643;28;20063;-58
2023/04/10 08:02:22;;;;;;;10.68;8.23;;;12.10;99.90;;;;;;5038809;28;20099;-58
2023/04/10 08:04:47;;;;;;;11.15;7.65;;;12.20;99.90;;;;;;5047167;28;20029;-58
2023/04/10 08:07:13;;;;;;;10.77;8.35;;;12.20;99.90;;;;;;5045883;28;20056;-58
2023/04/10 08:09:38;;;;;;;12.07;8.10;;;12.30;99.90;;;;;;5039789;28;20130;-59
2023/04/10 08:12:04;;;;;;;9.70;7.70;;;12.40;99.90;;;;;;5047253;28;20128;-59
2023/04/10 08:14:30;;;;;;;10.70;7.50;;;12.50;99.90;;;;;;5043460;28;20041;-58
2023/04/10 08:16:56;;;;;;;9.13;7.45;;;12.60;99.90;;;;;;5052129;28;20025;-58
2023/04/10 08:19:21;;;;;;;9.43;8.00;;;12.60;99.90;;;;;;5043909;28;20493;-58
2023/04/10 08:21:47;;;;;;;9.40;7.22;;;12.60;99.90;;;;;;5043304;28;20033;-58
2023/04/10 08:24:13;;;;;;;8.77;7.03;;;12.80;99.90;;;;;;5039132;28;20072;-58
2023/04/10 08:26:38;;;;;;;8.35;6.55;;;12.90;99.90;;;;;;5046512;28;20445;-58
2023/04/10 08:29:04;;;;;;;8.40;6.53;;;12.90;99.90;;;;;;5034897;28;20119;-58
2023/04/10 08:31:29;;;;;;;7.55;6.15;;;12.90;99.90;;;;;;5039029;28;20124;-58
2023/04/10 08:33:55;;;;;;;8.90;6.68;;;12.90;99.90;;;;;;5040893;28;20032;-58
2023/04/10 08:36:21;;;;;;;9.10;6.47;;;13.00;99.90;;;;;;5039293;28;20036;-59
2023/04/10 08:38:47;;;;;;;14.95;6.38;;;13.10;99.90;;;;;;5036956;28;20033;-58
2023/04/10 08:41:17;;;;;;;8.15;6.70;;;13.00;99.90;;;;;;5043679;28;20025;-58
2023/04/10 08:43:44;;;;;;;8.15;6.32;;;12.90;99.90;;;;;;5044004;28;20048;-58
2023/04/10 08:46:10;;;;;;;8.00;6.35;;;12.80;99.90;;;;;;5046696;28;20079;-58
2023/04/10 08:48:46;;;;;;;8.25;6.75;;;12.80;99.90;;;;;;5042984;28;20060;-58
2023/04/10 08:51:23;;;;;;;8.43;6.22;;;12.80;99.90;;;;;;5047282;28;20116;-58
2023/04/10 08:53:50;;;;;;;9.70;6.60;;;12.80;99.90;;;;;;5042274;28;20132;-58
2023/04/10 08:56:17;;;;;;;8.52;5.97;;;12.90;99.90;;;;;;5053550;28;20109;-58
2023/04/10 08:58:44;;;;;;;7.57;6.22;;;13.10;99.90;;;;;;5040849;28;20026;-58
2023/04/10 09:01:12;;;;;;;7.40;5.80;;;13.10;99.90;;;;;;5039399;28;20103;-58
2023/04/10 09:03:38;;;;;;;7.15;5.90;;;13.30;99.90;;;;;;5039258;28;20044;-58
2023/04/10 09:06:04;;;;;;;8.38;5.72;;;13.40;99.90;;;;;;5044387;28;20037;-59
2023/04/10 09:08:31;;;;;;;8.55;5.85;;;13.60;99.90;;;;;;5042588;28;20488;-58
2023/04/10 09:10:57;;;;;;;6.90;5.72;;;13.80;99.90;;;;;;5038964;28;20534;-58
2023/04/10 09:13:45;;;;;;;6.90;5.68;;;14.00;99.90;;;;;;5038104;28;20045;-58
2023/04/10 09:16:14;;;;;;;7.50;5.78;;;14.00;99.90;;;;;;5040135;28;20068;-58
2023/04/10 09:18:40;;;;;;;6.40;5.63;;;14.00;99.90;;;;;;5042955;28;20484;-58
2023/04/10 09:21:08;;;;;;;6.55;5.18;;;14.00;99.90;;;;;;5042842;28;20078;-58
2023/04/10 09:23:33;;;;;;;7.03;5.35;;;14.00;99.90;;;;;;5037605;28;20036;-57
2023/04/10 09:25:59;;;;;;;6.90;5.32;;;14.00;99.90;;;;;;5034459;28;20594;-58
2023/04/10 09:28:24;;;;;;;9.13;5.50;;;14.10;99.90;;;;;;5042682;28;20512;-57
2023/04/10 09:30:50;;;;;;;7.18;5.43;;;14.10;99.90;;;;;;5044463;28;20035;-58
2023/04/10 09:33:22;;;;;;;6.43;5.07;;;14.20;99.90;;;;;;5043581;28;20116;-58
2023/04/10 09:35:48;;;;;;;7.65;5.55;;;14.20;99.90;;;;;;5042642;28;20108;-58
2023/04/10 09:38:18;;;;;;;6.82;4.60;;;14.20;99.90;;;;;;5047796;28;20124;-57
2023/04/10 09:40:45;;;;;;;5.20;4.68;;;14.30;99.90;;;;;;5048747;28;20276;-58
2023/04/10 09:43:23;;;;;;;5.68;4.78;;;14.40;99.90;;;;;;5048221;28;20404;-57
2023/04/10 09:45:55;;;;;;;6.05;4.90;;;14.50;99.90;;;;;;5041441;28;20036;-58
2023/04/10 09:48:21;;;;;;;5.93;4.85;;;14.70;99.90;;;;;;5045696;28;20075;-58
2023/04/10 09:50:47;;;;;;;5.32;4.55;;;14.70;99.90;;;;;;5047666;28;20033;-58
2023/04/10 09:53:20;;;;;;;5.30;4.60;;;14.90;99.90;;;;;;5041076;28;20041;-58
2023/04/10 09:55:47;;;;;;;;;;;14.90;99.90;;;;;;5056736;28;20036;-58
2023/04/10 09:58:13;;;;;;;5.43;4.47;;;14.80;99.90;;;;;;5052376;28;20386;-58
2023/04/10 10:00:45;;;;;;;6.60;4.53;;;14.90;99.90;;;;;;5050298;28;20025;-58
2023/04/10 10:03:15;;;;;;;5.95;4.57;;;15.00;99.90;;;;;;5046889;28;20040;-58
2023/04/10 10:05:47;;;;;;;5.72;4.85;;;15.10;99.90;;;;;;5049863;28;20558;-58
2023/04/10 10:08:14;;;;;;;5.32;3.85;;;15.30;99.90;;;;;;5045497;28;20404;-58
2023/04/10 10:10:46;;;;;;;6.32;4.00;;;15.50;99.90;;;;;;5046296;28;20037;-58
2023/04/10 10:13:19;;;;;;;5.28;4.35;;;15.60;99.90;;;;;;5051826;28;20102;-58
2023/04/10 10:16:07;;;;;;;6.68;4.30;;;15.60;99.90;;;;;;5047750;28;20122;-59
2023/04/10 10:18:54;;;;;;;6.53;4.70;;;15.50;99.90;;;;;;5057004;28;20060;-57
2023/04/10 10:21:22;;;;;;;7.10;4.85;;;15.50;99.90;;;;;;5041056;28;20037;-58
2023/04/10 10:23:52;;;;;;;4.95;4.15;;;15.50;99.90;;;;;;5051513;28;20140;-57
2023/04/10 10:26:19;;;;;;;5.13;4.28;;;15.50;99.90;;;;;;5044446;28;20037;-58
2023/04/10 10:28:46;;;;;;;5.28;4.45;;;15.60;99.90;;;;;;5039723;28;20163;-58
2023/04/10 10:31:12;;;;;;;5.20;4.13;;;15.60;99.90;;;;;;5045792;28;20095;-57
2023/04/10 10:33:40;;;;;;;4.68;4.20;;;15.70;99.90;;;;;;5042640;28;20522;-57
2023/04/10 10:36:07;;;;;;;6.28;4.45;;;15.70;99.90;;;;;;5045846;28;20463;-57
2023/04/10 10:38:33;;;;;;;5.57;4.30;;;15.60;99.90;;;;;;5045142;28;20060;-57
2023/04/10 10:41:15;;;;;;;5.43;4.35;;;15.60;99.90;;;;;;5051086;28;20479;-57
2023/04/10 10:43:51;;;;;;;4.38;3.97;;;15.70;99.90;;;;;;5055799;28;20033;-58
2023/04/10 10:46:32;;;;;;;4.85;4.10;;;15.90;99.90;;;;;;5049117;28;20041;-57
2023/04/10 10:48:59;;;;;;;5.28;4.20;;;16.00;99.90;;;;;;5050024;28;20533;-58
2023/04/10 10:51:42;;;;;;;4.50;4.03;;;15.90;99.90;;;;;;5042648;28;20050;-58
2023/04/10 10:54:27;;;;;;;6.18;4.22;;;15.80;99.90;;;;;;5046120;28;20144;-58
2023/04/10 10:56:53;;;;;;;5.35;4.05;;;16.00;99.90;;;;;;5051375;28;20047;-58
2023/04/10 10:59:47;;;;;;;5.00;3.80;;;15.90;99.90;;;;;;5051769;28;20040;-58
2023/04/10 11:02:17;;;;;;;5.32;4.10;;;15.90;99.90;;;;;;5046274;28;20120;-57
2023/04/10 11:04:49;;;;;;;5.80;4.32;;;15.80;99.90;;;;;;5049528;28;20045;-57
2023/04/10 11:07:16;;;;;;;4.82;3.83;;;15.80;99.90;;;;;;5045443;28;20471;-58
2023/04/10 11:09:52;;;;;;;5.40;4.15;;;16.00;99.90;;;;;;5050774;28;20524;-57
2023/04/10 11:12:22;;;;;;;4.35;3.83;;;16.00;99.90;;;;;;5041897;28;20405;-57
2023/04/10 11:14:59;;;;;;;4.93;3.60;;;16.10;99.90;;;;;;5046530;28;20052;-57
2023/04/10 11:17:50;;;;;;;4.72;3.78;;;16.10;99.90;;;;;;5049466;28;20037;-58
2023/04/10 11:20:20;;;;;;;5.20;3.97;;;16.20;99.90;;;;;;5043975;28;20504;-58
2023/04/10 11:23:19;;;;;;;6.47;3.85;;;16.10;99.90;;;;;;5041978;28;20041;-58
2023/04/10 11:25:53;;;;;;;5.38;4.15;;;16.10;99.90;;;;;;5018791;28;20033;-57
2023/04/10 11:28:31;;;;;;;4.95;3.92;;;16.20;99.90;;;;;;5050405;28;20431;-58
2023/04/10 11:31:17;;;;;;;4.78;3.83;;;16.20;99.90;;;;;;5050158;28;20045;-57
2023/04/10 11:33:44;;;;;;;5.80;4.07;;;16.20;99.90;;;;;;5041791;28;20401;-58
2023/04/10 11:36:16;;;;;;;5.30;4.00;;;16.20;99.90;;;;;;5049298;28;20405;-58
2023/04/10 11:38:55;;;;;;;5.05;3.80;;;16.20;99.90;;;;;;5044998;28;20024;-57
2023/04/10 11:41:27;;;;;;;4.25;3.67;;;16.20;99.90;;;;;;5048827;28;20476;-57
2023/04/10 11:43:52;;;;;;;5.53;4.20;;;16.30;99.90;;;;;;5050426;28;20029;-57
2023/04/10 11:46:19;;;;;;;5.05;3.83;;;16.40;99.90;;;;;;5053730;28;20037;-58
2023/04/10 11:48:45;;;;;;;4.45;3.67;;;16.50;99.90;;;;;;5058609;28;20040;-58
2023/04/10 11:51:13;;;;;;;3.90;3.50;;;16.70;99.90;;;;;;5053009;28;20039;-58
2023/04/10 11:53:39;;;;;;;3.83;3.42;;;16.70;99.90;;;;;;5041306;28;20388;-58
2023/04/10 11:56:13;;;;;;;3.90;3.35;;;16.80;99.90;;;;;;5056378;28;20032;-58
2023/04/10 11:58:39;;;;;;;3.75;3.38;;;16.90;99.90;;;;;;5054126;28;20033;-58
2023/04/10 12:01:05;;;;;;;3.70;3.30;;;16.90;99.90;;;;;;5047919;28;20043;-58
2023/04/10 12:03:35;;;;;;;4.28;3.50;;;17.00;99.90;;;;;;5038240;28;20040;-58
2023/04/10 12:06:01;;;;;;;4.95;3.85;;;16.90;99.90;;;;;;5047151;28;20554;-58
2023/04/10 12:08:34;;;;;;;3.90;3.30;;;16.80;99.90;;;;;;5048248;28;20030;-58
2023/04/10 12:11:01;;;;;;;4.97;3.25;;;16.60;99.90;;;;;;5049631;28;20133;-57
2023/04/10 12:13:28;;;;;;;4.10;3.42;;;16.70;99.90;;;;;;5049706;28;20033;-57
2023/04/10 12:15:57;;;;;;;3.13;2.83;;;16.60;99.90;;;;;;5043438;28;20033;-57
2023/04/10 12:18:23;;;;;;;3.53;3.20;;;16.70;99.90;;;;;;5046393;28;20036;-58
2023/04/10 12:20:50;;;;;;;5.78;3.50;;;16.80;99.90;;;;;;5044930;28;20139;-58
2023/04/10 12:23:17;;;;;;;4.93;3.50;;;16.80;99.90;;;;;;5045942;28;20090;-58
2023/04/10 12:25:42;;;;;;;5.05;3.60;;;16.70;99.90;;;;;;5042947;28;20465;-57
2023/04/10 12:28:08;;;;;;;5.55;3.78;;;16.80;99.90;;;;;;5043924;28;20094;-58
2023/04/10 12:30:33;;;;;;;4.75;3.13;;;16.80;99.90;;;;;;5051474;28;20060;-58
2023/04/10 12:33:03;;;;;;;4.00;3.42;;;16.80;99.90;;;;;;5045970;28;20047;-57
2023/04/10 12:35:39;;;;;;;5.18;3.78;;;16.80;99.90;;;;;;5044245;28;20404;-58
2023/04/10 12:38:04;;;;;;;3.55;3.00;;;16.90;99.90;;;;;;5038775;28;20307;-59
2023/04/10 12:40:30;;;;;;;4.07;3.58;;;17.10;99.90;;;;;;5037770;28;20440;-58
2023/04/10 12:42:56;;;;;;;5.75;3.63;;;17.10;99.90;;;;;;5047345;28;20156;-58
2023/04/10 12:45:41;;;;;;;5.55;3.40;;;17.20;99.90;;;;;;5044866;28;20037;-58
2023/04/10 12:48:07;;;;;;;4.07;3.30;;;17.10;99.90;;;;;;5039523;28;20041;-58
2023/04/10 12:50:32;;;;;;;4.53;3.55;;;17.10;99.90;;;;;;5042213;28;20100;-58